CheckWX is a tool to help pilots better visualize weather data.  It is not intended as a substitute for an official pre-flight weather briefing.

05:06:07 UTC

KLEW METAR
Auburn Lewiston Municipal Airport
Auburn/Lewiston, Maine, USA
Current

10 mins ago

KLEW 150456Z AUTO 02006KT 10SM OVC020 18/16 A3013 RMK AO2 RAE10 SLP210 P0000 T01780161
Observed
Jul-15 @ 04:56 UTC
Wind
  • 020° at 6 KTS
Visibility
10 SM
Flight Rules
MVFR
Cloud Levels
  • Overcast at 2,000' AGL
Temperature
18°C / 64°F
Dewpoint
16°C / 61°F
Humidity
88%
Altimeter
30.13" Hg
Pressure
1020.32 hPa
Current Rain
0.01"
Previous

1 hour ago

KLEW 150356Z AUTO 03006KT 10SM -RA OVC022 17/16 A3013 RMK AO2 RAB17 SLP208 P0000 T01720161 402000150
Observed
Jul-15 @ 03:56 UTC
Wind
  • 030° at 6 KTS
Visibility
10 SM
Flight Rules
MVFR
Conditions
Light Rain
Cloud Levels
  • Overcast at 2,200' AGL
Dewpoint
16°C / 61°F
Humidity
94%
Altimeter
30.13" Hg
Pressure
1020.32 hPa
Current Rain
0.01"
Previous

2 hours ago

KLEW 150256Z AUTO 02006KT 10SM OVC022 18/17 A3013 RMK AO2 SLP207 60000 T01780167 52012
Observed
Jul-15 @ 02:56 UTC
Wind
  • 020° at 6 KTS
Visibility
10 SM
Flight Rules
MVFR
Cloud Levels
  • Overcast at 2,200' AGL
Temperature
18°C / 64°F
Dewpoint
17°C / 63°F
Humidity
94%
Altimeter
30.13" Hg
Pressure
1020.32 hPa